createdAt,value
2018-07-12T00:00:16.653Z,22.44
2018-07-12T00:01:16.666Z,22.44
2018-07-12T00:02:16.637Z,22.44
2018-07-12T00:03:16.771Z,22.43
2018-07-12T00:04:16.676Z,22.45
2018-07-12T00:05:16.617Z,22.45
2018-07-12T00:06:16.656Z,22.45
2018-07-12T00:07:16.572Z,22.44
2018-07-12T00:08:16.881Z,22.44
2018-07-12T00:09:16.758Z,22.44
2018-07-12T00:10:16.568Z,22.43
2018-07-12T00:11:16.510Z,22.43
2018-07-12T00:12:16.537Z,22.43
2018-07-12T00:13:16.707Z,22.44
2018-07-12T00:14:16.676Z,22.43
2018-07-12T00:15:16.633Z,22.44
2018-07-12T00:16:16.445Z,22.43
2018-07-12T00:17:16.535Z,22.43
2018-07-12T00:18:16.600Z,22.43
2018-07-12T00:19:16.657Z,22.43
2018-07-12T00:20:16.555Z,22.43
2018-07-12T00:21:16.619Z,22.44
2018-07-12T00:22:16.656Z,22.44
2018-07-12T00:23:16.647Z,22.44
2018-07-12T00:24:16.647Z,22.43
2018-07-12T00:25:16.515Z,22.43
2018-07-12T00:26:16.700Z,22.43
2018-07-12T00:27:16.701Z,22.43
2018-07-12T00:28:16.735Z,22.43
2018-07-12T00:29:16.641Z,22.43
2018-07-12T00:30:16.613Z,22.41
2018-07-12T00:31:16.596Z,22.43
2018-07-12T00:32:16.652Z,22.42
2018-07-12T00:33:16.652Z,22.42
2018-07-12T00:34:16.521Z,22.44
2018-07-12T00:35:16.636Z,22.42
2018-07-12T00:36:16.675Z,22.42
2018-07-12T00:37:16.882Z,22.43
2018-07-12T00:38:16.821Z,22.43
2018-07-12T00:39:16.808Z,22.42
2018-07-12T00:40:16.548Z,22.42
2018-07-12T00:41:16.531Z,22.42
2018-07-12T00:42:16.731Z,22.42
2018-07-12T00:43:16.680Z,22.42
2018-07-12T00:44:16.629Z,22.42
2018-07-12T00:45:16.734Z,22.42
2018-07-12T00:46:16.537Z,22.42
2018-07-12T00:47:16.506Z,22.41
2018-07-12T00:48:16.569Z,22.42
2018-07-12T00:49:16.671Z,22.42
2018-07-12T00:50:16.707Z,22.42
2018-07-12T00:51:16.670Z,22.42
2018-07-12T00:52:16.714Z,22.43
2018-07-12T00:53:16.734Z,22.42
2018-07-12T00:54:16.488Z,22.42
2018-07-12T00:55:16.740Z,22.42
2018-07-12T00:56:16.594Z,22.42
2018-07-12T00:57:16.468Z,22.41
2018-07-12T00:58:16.521Z,22.41
2018-07-12T00:59:16.632Z,22.41
2018-07-12T01:00:16.629Z,22.41
2018-07-12T01:01:16.744Z,22.42
2018-07-12T01:02:16.611Z,22.41
2018-07-12T01:03:26.872Z,22.41
2018-07-12T01:04:16.607Z,22.42
2018-07-12T01:05:16.723Z,22.41
2018-07-12T01:06:16.678Z,22.41
2018-07-12T01:07:16.729Z,22.41
2018-07-12T01:08:16.635Z,22.42
2018-07-12T01:09:16.738Z,22.41
2018-07-12T01:10:16.506Z,22.41
2018-07-12T01:11:16.684Z,22.41
2018-07-12T01:12:16.455Z,22.41
2018-07-12T01:13:16.452Z,22.4
2018-07-12T01:14:16.592Z,22.4
2018-07-12T01:15:16.636Z,22.41
2018-07-12T01:16:16.607Z,22.41
2018-07-12T01:17:16.494Z,22.4
2018-07-12T01:18:16.603Z,22.41
2018-07-12T01:19:16.723Z,22.41
2018-07-12T01:20:16.672Z,22.41
2018-07-12T01:21:16.700Z,22.4
2018-07-12T01:22:16.698Z,22.4
2018-07-12T01:23:16.538Z,22.4
2018-07-12T01:24:16.673Z,22.4
2018-07-12T01:25:16.612Z,22.41
2018-07-12T01:26:16.522Z,22.4
2018-07-12T01:27:16.768Z,22.39
2018-07-12T01:28:16.749Z,22.41
2018-07-12T01:29:16.556Z,22.4
2018-07-12T01:30:16.513Z,22.4
2018-07-12T01:31:16.764Z,22.39
2018-07-12T01:32:16.619Z,22.39
2018-07-12T01:33:16.659Z,22.4
2018-07-12T01:34:16.657Z,22.4
2018-07-12T01:35:16.594Z,22.39
2018-07-12T01:36:16.684Z,22.4
2018-07-12T01:37:16.561Z,22.4
2018-07-12T01:38:16.701Z,22.39
2018-07-12T01:39:16.451Z,22.39
2018-07-12T01:40:16.631Z,22.4
2018-07-12T01:41:16.520Z,22.4
2018-07-12T01:42:16.579Z,22.39
2018-07-12T01:43:16.693Z,22.4
2018-07-12T01:44:16.740Z,22.4
2018-07-12T01:45:16.814Z,22.39
2018-07-12T01:46:16.576Z,22.39
2018-07-12T01:47:16.562Z,22.4
2018-07-12T01:48:16.484Z,22.39
2018-07-12T01:49:16.544Z,22.4
2018-07-12T01:50:16.647Z,22.39
2018-07-12T01:51:16.630Z,22.39
2018-07-12T01:52:16.639Z,22.4
2018-07-12T01:53:16.629Z,22.39
2018-07-12T01:54:16.572Z,22.38
2018-07-12T01:55:16.613Z,22.4
2018-07-12T01:56:16.753Z,22.39
2018-07-12T01:57:16.477Z,22.39
2018-07-12T01:58:16.701Z,22.39
2018-07-12T01:59:16.732Z,22.39
2018-07-12T02:00:16.641Z,22.38
2018-07-12T02:01:16.810Z,22.39
2018-07-12T02:02:16.868Z,22.39
2018-07-12T02:03:16.661Z,22.39
2018-07-12T02:04:16.617Z,22.39
2018-07-12T02:05:16.547Z,22.38
2018-07-12T02:06:16.419Z,22.39
2018-07-12T02:07:16.747Z,22.39
2018-07-12T02:08:16.659Z,22.38
2018-07-12T02:09:16.568Z,22.38
2018-07-12T02:10:16.864Z,22.39
2018-07-12T02:11:16.683Z,22.39
2018-07-12T02:12:16.704Z,22.38
2018-07-12T02:13:16.715Z,22.38
2018-07-12T02:14:16.686Z,22.38
2018-07-12T02:15:16.650Z,22.38
2018-07-12T02:16:16.709Z,22.39
2018-07-12T02:17:16.717Z,22.38
2018-07-12T02:18:16.582Z,22.38
2018-07-12T02:19:16.594Z,22.38
2018-07-12T02:20:16.664Z,22.38
2018-07-12T02:21:16.544Z,22.39
2018-07-12T02:22:16.725Z,22.38
2018-07-12T02:23:16.554Z,22.37
2018-07-12T02:24:16.540Z,22.37
2018-07-12T02:25:16.674Z,22.37
2018-07-12T02:26:16.676Z,22.38
2018-07-12T02:27:16.596Z,22.38
2018-07-12T02:28:16.694Z,22.37
2018-07-12T02:29:16.668Z,22.39
2018-07-12T02:30:16.671Z,22.39
2018-07-12T02:31:17.163Z,22.37
2018-07-12T02:32:17.485Z,22.38
2018-07-12T02:33:17.147Z,22.38
2018-07-12T02:34:17.343Z,22.38
2018-07-12T02:35:17.457Z,22.38
2018-07-12T02:36:17.167Z,22.37
2018-07-12T02:37:17.251Z,22.37
2018-07-12T02:38:17.320Z,22.38
2018-07-12T02:39:17.247Z,22.37
2018-07-12T02:40:17.269Z,22.38
2018-07-12T02:41:17.231Z,22.37
2018-07-12T02:42:17.073Z,22.38
2018-07-12T02:43:17.203Z,22.37
2018-07-12T02:44:17.213Z,22.37
2018-07-12T02:45:17.180Z,22.36
2018-07-12T02:46:17.192Z,22.38
2018-07-12T02:47:17.241Z,22.37
2018-07-12T02:48:17.184Z,22.37
2018-07-12T02:49:17.238Z,22.37
2018-07-12T02:50:17.347Z,22.37
2018-07-12T02:51:17.012Z,22.37
2018-07-12T02:52:17.167Z,22.37
2018-07-12T02:53:17.338Z,22.36
2018-07-12T02:54:17.230Z,22.37
2018-07-12T02:55:17.306Z,22.38
2018-07-12T02:56:17.104Z,22.37
2018-07-12T02:57:17.365Z,22.37
2018-07-12T02:58:17.316Z,22.37
2018-07-12T02:59:17.167Z,22.36
2018-07-12T03:00:17.085Z,22.36
2018-07-12T03:01:17.315Z,22.37
2018-07-12T03:02:17.346Z,22.37
2018-07-12T03:03:17.390Z,22.36
2018-07-12T03:04:17.178Z,22.36
2018-07-12T03:05:17.176Z,22.36
2018-07-12T03:06:17.403Z,22.37
2018-07-12T03:07:17.180Z,22.38
2018-07-12T03:08:17.330Z,22.36
2018-07-12T03:09:17.147Z,22.36
2018-07-12T03:10:17.350Z,22.37
2018-07-12T03:11:17.400Z,22.36
2018-07-12T03:12:17.732Z,22.36
2018-07-12T03:13:17.271Z,22.38
2018-07-12T03:14:17.577Z,22.36
2018-07-12T03:15:17.107Z,22.36
2018-07-12T03:16:17.297Z,22.36
2018-07-12T03:17:17.347Z,22.37
2018-07-12T03:18:17.100Z,22.36
2018-07-12T03:19:17.347Z,22.36
2018-07-12T03:20:17.267Z,22.37
2018-07-12T03:21:17.325Z,22.36
2018-07-12T03:22:17.417Z,22.36
2018-07-12T03:23:17.409Z,22.36
2018-07-12T03:24:17.377Z,22.36
2018-07-12T03:25:17.351Z,22.35
2018-07-12T03:26:17.277Z,22.36
2018-07-12T03:27:17.154Z,22.36
2018-07-12T03:28:17.266Z,22.36
2018-07-12T03:29:17.201Z,22.35
2018-07-12T03:30:17.303Z,22.35
2018-07-12T03:31:17.077Z,22.36
2018-07-12T03:32:17.452Z,22.35
2018-07-12T03:33:17.277Z,22.36
2018-07-12T03:34:18.515Z,22.35
2018-07-12T03:35:17.330Z,22.36
2018-07-12T03:36:17.349Z,22.36
2018-07-12T03:37:17.434Z,22.36
2018-07-12T03:38:17.252Z,22.36
2018-07-12T03:39:16.923Z,22.36
2018-07-12T03:40:18.619Z,22.37
2018-07-12T03:41:17.464Z,22.35
2018-07-12T03:42:16.954Z,22.35
2018-07-12T03:43:16.957Z,22.35
2018-07-12T03:44:17.425Z,22.35
2018-07-12T03:45:17.245Z,22.35
2018-07-12T03:46:17.343Z,22.35
2018-07-12T03:47:17.073Z,22.36
2018-07-12T03:48:17.862Z,22.35
2018-07-12T03:49:17.159Z,22.36
2018-07-12T03:50:16.890Z,22.35
2018-07-12T03:51:17.316Z,22.35
2018-07-12T03:52:17.302Z,22.35
2018-07-12T03:53:17.246Z,22.36
2018-07-12T03:54:16.444Z,22.35
2018-07-12T03:55:17.259Z,22.35
2018-07-12T03:56:17.336Z,22.34
2018-07-12T03:57:17.107Z,22.35
2018-07-12T03:58:18.615Z,22.35
2018-07-12T03:59:17.401Z,22.36
2018-07-12T04:00:17.371Z,22.35
2018-07-12T04:01:17.013Z,22.36
2018-07-12T04:02:17.260Z,22.35
2018-07-12T04:03:16.432Z,22.35
2018-07-12T04:04:17.388Z,22.34
2018-07-12T04:05:17.371Z,22.35
2018-07-12T04:06:17.401Z,22.34
2018-07-12T04:07:16.997Z,22.34
2018-07-12T04:08:17.143Z,22.35
2018-07-12T04:09:17.385Z,22.35
2018-07-12T04:10:17.052Z,22.34
2018-07-12T04:11:17.378Z,22.36
2018-07-12T04:12:16.871Z,22.35
2018-07-12T04:13:17.313Z,22.34
2018-07-12T04:14:16.953Z,22.34
2018-07-12T04:15:17.131Z,22.35
2018-07-12T04:16:18.133Z,22.34
2018-07-12T04:17:18.738Z,22.35
2018-07-12T04:18:16.925Z,22.35
2018-07-12T04:19:17.264Z,22.35
2018-07-12T04:20:17.207Z,22.34
2018-07-12T04:21:17.459Z,22.34
2018-07-12T04:22:18.674Z,22.35
2018-07-12T04:23:16.532Z,22.34
2018-07-12T04:24:17.339Z,22.34
2018-07-12T04:25:17.079Z,22.34
2018-07-12T04:26:18.105Z,22.35
2018-07-12T04:27:17.404Z,22.35
2018-07-12T04:28:17.400Z,22.35
2018-07-12T04:29:17.558Z,22.34
2018-07-12T04:30:16.409Z,22.34
2018-07-12T04:31:16.793Z,22.34
2018-07-12T04:32:16.603Z,22.34
2018-07-12T04:33:16.548Z,22.33
2018-07-12T04:34:17.482Z,22.34
2018-07-12T04:35:16.674Z,22.35
2018-07-12T04:36:16.614Z,22.35
2018-07-12T04:37:16.831Z,22.34
2018-07-12T04:38:16.569Z,22.35
2018-07-12T04:39:16.672Z,22.34
2018-07-12T04:40:16.481Z,22.34
2018-07-12T04:41:16.451Z,22.34
2018-07-12T04:42:16.516Z,22.33
2018-07-12T04:43:16.573Z,22.34
2018-07-12T04:44:16.730Z,22.35
2018-07-12T04:45:16.726Z,22.35
2018-07-12T04:46:16.640Z,22.35
2018-07-12T04:47:16.548Z,22.34
2018-07-12T04:48:16.424Z,22.35
2018-07-12T04:49:16.682Z,22.34
2018-07-12T04:50:16.617Z,22.33
2018-07-12T04:51:16.724Z,22.34
2018-07-12T04:52:16.575Z,22.34
2018-07-12T04:53:16.781Z,22.34
2018-07-12T04:54:16.466Z,22.34
2018-07-12T04:55:16.648Z,22.34
2018-07-12T04:56:16.634Z,22.34
2018-07-12T04:57:16.470Z,22.35
2018-07-12T04:58:16.603Z,22.34
2018-07-12T04:59:16.561Z,22.35
2018-07-12T05:00:16.680Z,22.34
2018-07-12T05:01:16.598Z,22.34
2018-07-12T05:02:16.702Z,22.35
2018-07-12T05:03:16.808Z,22.34
2018-07-12T05:04:16.553Z,22.34
2018-07-12T05:05:16.636Z,22.34
2018-07-12T05:06:16.443Z,22.34
2018-07-12T05:07:16.544Z,22.34
2018-07-12T05:08:16.590Z,22.34
2018-07-12T05:09:16.568Z,22.35
2018-07-12T05:10:16.546Z,22.35
2018-07-12T05:11:16.487Z,22.35
2018-07-12T05:12:16.590Z,22.34
2018-07-12T05:13:16.417Z,22.34
2018-07-12T05:14:16.599Z,22.34
2018-07-12T05:15:16.458Z,22.34
2018-07-12T05:16:16.588Z,22.35
2018-07-12T05:17:16.498Z,22.35
2018-07-12T05:18:16.451Z,22.35
2018-07-12T05:19:16.690Z,22.34
2018-07-12T05:20:16.693Z,22.34
2018-07-12T05:21:16.524Z,22.35
2018-07-12T05:22:16.546Z,22.36
2018-07-12T05:23:16.526Z,22.35
2018-07-12T05:24:16.442Z,22.34
2018-07-12T05:25:16.600Z,22.34
2018-07-12T05:26:16.618Z,22.35
2018-07-12T05:27:16.479Z,22.35
2018-07-12T05:28:17.178Z,22.35
2018-07-12T05:29:16.551Z,22.34
2018-07-12T05:30:16.583Z,22.35
2018-07-12T05:31:19.138Z,22.35
2018-07-12T05:32:16.432Z,22.35
2018-07-12T05:33:17.179Z,22.34
2018-07-12T05:34:16.858Z,22.35
2018-07-12T05:35:16.889Z,22.34
2018-07-12T05:36:16.868Z,22.35
2018-07-12T05:37:16.860Z,22.33
2018-07-12T05:38:16.886Z,22.34
2018-07-12T05:39:17.014Z,22.34
2018-07-12T05:40:16.928Z,22.35
2018-07-12T05:41:16.804Z,22.35
2018-07-12T05:42:16.426Z,22.34
2018-07-12T05:43:16.511Z,22.35
2018-07-12T05:44:16.911Z,22.34
2018-07-12T05:45:19.321Z,22.36
2018-07-12T05:46:16.872Z,22.35
2018-07-12T05:47:16.879Z,22.34
2018-07-12T05:48:16.811Z,22.34
2018-07-12T05:49:16.909Z,22.34
2018-07-12T05:50:16.806Z,22.35
2018-07-12T05:51:16.426Z,22.33
2018-07-12T05:52:16.448Z,22.34
2018-07-12T05:53:16.499Z,22.34
2018-07-12T05:54:19.459Z,22.35
2018-07-12T05:55:16.863Z,22.34
2018-07-12T05:56:16.920Z,22.35
2018-07-12T05:57:19.047Z,22.35
2018-07-12T05:58:16.851Z,22.35
2018-07-12T05:59:16.518Z,22.34
2018-07-12T06:00:16.909Z,22.35
2018-07-12T06:01:16.518Z,22.34
2018-07-12T06:02:19.045Z,22.36
2018-07-12T06:03:16.601Z,22.34
2018-07-12T06:04:19.518Z,22.34
2018-07-12T06:05:16.911Z,22.34
2018-07-12T06:06:16.870Z,22.34
2018-07-12T06:07:16.856Z,22.34
2018-07-12T06:08:16.880Z,22.34
2018-07-12T06:09:16.490Z,22.35
2018-07-12T06:10:16.927Z,22.34
2018-07-12T06:11:16.876Z,22.34
2018-07-12T06:12:16.424Z,22.33
2018-07-12T06:13:16.951Z,22.34
2018-07-12T06:14:16.486Z,22.34
2018-07-12T06:15:16.476Z,22.35
2018-07-12T06:16:16.490Z,22.34
2018-07-12T06:17:16.956Z,22.34
2018-07-12T06:18:16.491Z,22.34
2018-07-12T06:19:16.858Z,22.34
2018-07-12T06:20:16.890Z,22.34
2018-07-12T06:21:16.913Z,22.34
2018-07-12T06:22:16.991Z,22.34
2018-07-12T06:23:16.921Z,22.34
2018-07-12T06:24:16.947Z,22.34
2018-07-12T06:25:16.858Z,22.34
2018-07-12T06:26:16.477Z,22.35
2018-07-12T06:27:16.869Z,22.34
2018-07-12T06:28:16.873Z,22.35
2018-07-12T06:29:16.942Z,22.35
2018-07-12T06:30:16.460Z,22.34
2018-07-12T06:31:16.513Z,22.35
2018-07-12T06:32:16.472Z,22.34
2018-07-12T06:33:16.654Z,22.34
2018-07-12T06:34:16.466Z,22.35
2018-07-12T06:35:16.669Z,22.34
2018-07-12T06:36:16.454Z,22.34
2018-07-12T06:37:16.519Z,22.34
2018-07-12T06:38:16.453Z,22.34
2018-07-12T06:39:16.528Z,22.35
2018-07-12T06:40:16.664Z,22.35
2018-07-12T06:41:16.447Z,22.34
2018-07-12T06:42:16.531Z,22.35
2018-07-12T06:43:16.487Z,22.34
2018-07-12T06:44:16.706Z,22.33
2018-07-12T06:45:16.410Z,22.35
2018-07-12T06:46:16.655Z,22.35
2018-07-12T06:47:16.506Z,22.34
2018-07-12T06:48:16.573Z,22.34
2018-07-12T06:49:16.417Z,22.35
2018-07-12T06:50:16.710Z,22.34
2018-07-12T06:51:16.650Z,22.34
2018-07-12T06:52:16.620Z,22.34
2018-07-12T06:53:16.607Z,22.35
2018-07-12T06:54:17.328Z,22.34
2018-07-12T06:55:16.472Z,22.35
2018-07-12T06:56:16.632Z,22.34
2018-07-12T06:57:16.611Z,22.33
2018-07-12T06:58:32.759Z,22.35
2018-07-12T06:59:16.627Z,22.34
2018-07-12T07:00:16.625Z,22.34
2018-07-12T07:01:16.634Z,22.34
2018-07-12T07:02:16.473Z,22.34
2018-07-12T07:03:16.482Z,22.34
2018-07-12T07:04:16.411Z,22.35
2018-07-12T07:05:16.626Z,22.34
2018-07-12T07:06:16.494Z,22.34
2018-07-12T07:07:16.540Z,22.35
2018-07-12T07:08:16.574Z,22.34
2018-07-12T07:09:16.747Z,22.34
2018-07-12T07:10:16.659Z,22.34
2018-07-12T07:11:16.708Z,22.34
2018-07-12T07:12:16.405Z,22.34
2018-07-12T07:13:16.812Z,22.35
2018-07-12T07:14:16.603Z,22.33
2018-07-12T07:15:16.514Z,22.33
2018-07-12T07:16:16.557Z,22.34
2018-07-12T07:17:16.498Z,22.33
2018-07-12T07:18:16.598Z,22.33
2018-07-12T07:19:16.565Z,22.35
2018-07-12T07:20:16.423Z,22.34
2018-07-12T07:21:16.285Z,22.31
2018-07-12T07:22:16.413Z,22.34
2018-07-12T07:23:16.435Z,22.35
2018-07-12T07:24:16.686Z,22.37
2018-07-12T07:25:16.632Z,22.38
2018-07-12T07:26:16.731Z,22.39
2018-07-12T07:27:16.690Z,22.4
2018-07-12T07:28:16.471Z,22.41
2018-07-12T07:29:16.533Z,22.4
2018-07-12T07:30:16.401Z,22.39
2018-07-12T07:31:16.516Z,22.41
2018-07-12T07:32:16.644Z,22.42
2018-07-12T07:33:16.665Z,22.42
2018-07-12T07:34:16.481Z,22.43
2018-07-12T07:35:16.506Z,22.45
2018-07-12T07:36:16.718Z,22.45
2018-07-12T07:37:16.647Z,22.46
2018-07-12T07:38:16.532Z,22.46
2018-07-12T07:39:16.455Z,22.46
2018-07-12T07:40:16.363Z,22.46
2018-07-12T07:41:16.630Z,22.45
2018-07-12T07:42:16.650Z,22.45
2018-07-12T07:43:16.492Z,22.44
2018-07-12T07:44:16.677Z,22.44
2018-07-12T07:45:16.463Z,22.44
2018-07-12T07:46:16.469Z,22.43
2018-07-12T07:47:16.497Z,22.42
2018-07-12T07:48:16.422Z,22.42
2018-07-12T07:49:16.523Z,22.42
2018-07-12T07:50:16.557Z,22.41
2018-07-12T07:51:16.573Z,22.42
2018-07-12T07:52:16.635Z,22.42
2018-07-12T07:53:16.672Z,22.42
2018-07-12T07:54:16.562Z,22.42
2018-07-12T07:55:16.533Z,22.42
2018-07-12T07:56:16.424Z,22.42
2018-07-12T07:57:16.422Z,22.41
2018-07-12T07:58:16.452Z,22.41
2018-07-12T07:59:16.472Z,22.4
2018-07-12T08:00:16.589Z,22.41
2018-07-12T08:01:16.553Z,22.4
2018-07-12T08:02:16.571Z,22.41
2018-07-12T08:03:16.536Z,22.4
2018-07-12T08:04:16.569Z,22.4
2018-07-12T08:05:16.444Z,22.4
2018-07-12T08:06:16.347Z,22.4
2018-07-12T08:07:16.567Z,22.41
2018-07-12T08:08:16.593Z,22.4
2018-07-12T08:09:16.553Z,22.4
2018-07-12T08:10:16.630Z,22.39
2018-07-12T08:11:16.436Z,22.4
2018-07-12T08:12:16.624Z,22.4
2018-07-12T08:13:16.656Z,22.4
2018-07-12T08:14:16.479Z,22.39
2018-07-12T08:15:16.409Z,22.39
2018-07-12T08:16:16.630Z,22.4
2018-07-12T08:17:16.650Z,22.39
2018-07-12T08:18:16.579Z,22.4
2018-07-12T08:19:16.621Z,22.4
2018-07-12T08:20:16.431Z,22.39
2018-07-12T08:21:16.341Z,22.39
2018-07-12T08:22:16.409Z,22.39
2018-07-12T08:23:16.614Z,22.39
2018-07-12T08:24:16.437Z,22.39
2018-07-12T08:25:16.634Z,22.39
2018-07-12T08:26:16.713Z,22.38
2018-07-12T08:27:16.680Z,22.38
2018-07-12T08:28:16.779Z,22.38
2018-07-12T08:29:16.587Z,22.39
2018-07-12T08:30:16.605Z,22.38
2018-07-12T08:31:16.657Z,22.39
2018-07-12T08:32:16.396Z,22.39
2018-07-12T08:33:16.450Z,22.39
2018-07-12T08:34:16.581Z,22.38
2018-07-12T08:35:16.632Z,22.39
2018-07-12T08:36:16.555Z,22.38
2018-07-12T08:37:16.396Z,22.39
2018-07-12T08:38:16.599Z,22.38
2018-07-12T08:39:16.603Z,22.38
2018-07-12T08:40:16.457Z,22.39
2018-07-12T08:41:16.468Z,22.38
2018-07-12T08:42:16.366Z,22.37
2018-07-12T08:43:16.843Z,22.38
2018-07-12T08:44:16.629Z,22.38
2018-07-12T08:45:16.671Z,22.38
2018-07-12T08:46:16.644Z,22.38
2018-07-12T08:47:16.693Z,22.38
2018-07-12T08:48:16.810Z,22.38
2018-07-12T08:49:16.339Z,22.38
2018-07-12T08:50:16.633Z,22.38
2018-07-12T08:51:16.327Z,22.38
2018-07-12T08:52:16.317Z,22.38
2018-07-12T08:53:16.607Z,22.37
2018-07-12T08:54:16.612Z,22.38
2018-07-12T08:55:16.642Z,22.38
2018-07-12T08:56:16.478Z,22.37
2018-07-12T08:57:16.448Z,22.39
2018-07-12T08:58:16.723Z,22.38
2018-07-12T08:59:16.362Z,22.38
2018-07-12T09:00:16.404Z,22.37
2018-07-12T09:01:16.589Z,22.37
2018-07-12T09:02:16.606Z,22.37
2018-07-12T09:03:16.777Z,22.37
2018-07-12T09:04:16.679Z,22.36
2018-07-12T09:05:16.787Z,22.37
2018-07-12T09:06:16.450Z,22.37
2018-07-12T09:07:16.542Z,22.37
2018-07-12T09:08:16.671Z,22.37
2018-07-12T09:09:16.654Z,22.37
2018-07-12T09:10:16.614Z,22.37
2018-07-12T09:11:26.617Z,22.37
2018-07-12T09:12:16.531Z,22.37
2018-07-12T09:13:16.385Z,22.36
2018-07-12T09:14:16.432Z,22.37
2018-07-12T09:15:16.342Z,22.37
2018-07-12T09:16:16.413Z,22.37
2018-07-12T09:17:16.590Z,22.37
2018-07-12T09:18:16.628Z,22.37
2018-07-12T09:19:16.457Z,22.37
2018-07-12T09:20:16.380Z,22.37
2018-07-12T09:21:16.574Z,22.36
2018-07-12T09:22:16.376Z,22.37
2018-07-12T09:23:16.448Z,22.37
2018-07-12T09:24:16.546Z,22.37
2018-07-12T09:25:16.428Z,22.38
2018-07-12T09:26:16.361Z,22.37
2018-07-12T09:27:16.648Z,22.37
2018-07-12T09:28:16.418Z,22.36
2018-07-12T09:29:16.484Z,22.36
2018-07-12T09:30:16.637Z,22.36
2018-07-12T09:31:16.403Z,22.37
2018-07-12T09:32:16.649Z,22.37
2018-07-12T09:33:16.598Z,22.37
2018-07-12T09:34:16.690Z,22.37
2018-07-12T09:35:16.575Z,22.37
2018-07-12T09:36:17.204Z,22.37
2018-07-12T09:37:16.670Z,22.37
2018-07-12T09:38:16.437Z,22.37
2018-07-12T09:39:16.977Z,22.37
2018-07-12T09:40:16.544Z,22.37
2018-07-12T09:41:16.604Z,22.37
2018-07-12T09:42:16.632Z,22.37
2018-07-12T09:43:16.596Z,22.36
2018-07-12T09:44:16.412Z,22.37
2018-07-12T09:45:17.695Z,22.36
2018-07-12T09:46:16.556Z,22.37
2018-07-12T09:47:16.582Z,22.36
2018-07-12T09:48:17.284Z,22.37
2018-07-12T09:49:16.730Z,22.36
2018-07-12T09:50:17.679Z,22.37
2018-07-12T09:51:16.674Z,22.37
2018-07-12T09:52:16.665Z,22.37
2018-07-12T09:53:16.652Z,22.37
2018-07-12T09:54:17.316Z,22.36
2018-07-12T09:55:16.401Z,22.36
2018-07-12T09:56:16.418Z,22.36
2018-07-12T09:57:16.413Z,22.37
2018-07-12T09:58:16.633Z,22.36
2018-07-12T09:59:16.455Z,22.37
2018-07-12T10:00:16.479Z,22.38
2018-07-12T10:01:16.710Z,22.37
2018-07-12T10:02:16.464Z,22.37
2018-07-12T10:03:16.463Z,22.37
2018-07-12T10:04:16.686Z,22.37
2018-07-12T10:05:16.368Z,22.37
2018-07-12T10:06:16.705Z,22.37
2018-07-12T10:07:16.333Z,22.37
2018-07-12T10:08:16.468Z,22.37
2018-07-12T10:09:16.374Z,22.37
2018-07-12T10:10:16.569Z,22.37
2018-07-12T10:11:16.428Z,22.36
2018-07-12T10:12:16.669Z,22.37
2018-07-12T10:13:16.416Z,22.36
2018-07-12T10:14:16.344Z,22.38
2018-07-12T10:15:16.896Z,22.37
2018-07-12T10:16:16.448Z,22.37
2018-07-12T10:17:16.590Z,22.37
2018-07-12T10:18:16.541Z,22.37
2018-07-12T10:19:16.598Z,22.37
2018-07-12T10:20:16.795Z,22.36
2018-07-12T10:21:16.563Z,22.37
2018-07-12T10:22:16.713Z,22.38
2018-07-12T10:23:16.375Z,22.37
2018-07-12T10:24:16.602Z,22.37
2018-07-12T10:25:16.480Z,22.37
2018-07-12T10:26:16.948Z,22.37
2018-07-12T10:27:16.613Z,22.37
2018-07-12T10:28:16.620Z,22.37
2018-07-12T10:29:16.500Z,22.37
2018-07-12T10:30:16.431Z,22.38
2018-07-12T10:31:16.397Z,22.37
2018-07-12T10:32:16.326Z,22.36
2018-07-12T10:33:16.524Z,22.37
2018-07-12T10:34:16.333Z,22.37
2018-07-12T10:35:16.389Z,22.37
2018-07-12T10:36:16.499Z,22.37
2018-07-12T10:37:16.542Z,22.37
2018-07-12T10:38:16.422Z,22.37
2018-07-12T10:39:16.556Z,22.37
2018-07-12T10:40:16.513Z,22.38
2018-07-12T10:41:16.383Z,22.38
2018-07-12T10:42:16.563Z,22.37
2018-07-12T10:43:16.416Z,22.37
2018-07-12T10:44:16.466Z,22.37
2018-07-12T10:45:16.580Z,22.37
2018-07-12T10:46:16.536Z,22.37
2018-07-12T10:47:16.519Z,22.37
2018-07-12T10:48:16.896Z,22.36
2018-07-12T10:49:16.530Z,22.36
2018-07-12T10:50:16.352Z,22.37
2018-07-12T10:51:16.361Z,22.37
2018-07-12T10:52:16.430Z,22.37
2018-07-12T10:53:16.411Z,22.37
2018-07-12T10:54:16.767Z,22.37
2018-07-12T10:55:16.654Z,22.37
2018-07-12T10:56:16.400Z,22.36
2018-07-12T10:57:16.476Z,22.37
2018-07-12T10:58:16.532Z,22.37
2018-07-12T10:59:16.370Z,22.36
2018-07-12T11:00:16.564Z,22.36
2018-07-12T11:01:16.547Z,22.36
2018-07-12T11:02:16.560Z,22.37
2018-07-12T11:03:16.537Z,22.37
2018-07-12T11:04:16.598Z,22.36
2018-07-12T11:05:16.615Z,22.36
2018-07-12T11:06:16.434Z,22.37
2018-07-12T11:07:16.712Z,22.36
2018-07-12T11:08:16.594Z,22.37
2018-07-12T11:09:16.678Z,22.36
2018-07-12T11:10:16.561Z,22.37
2018-07-12T11:11:16.531Z,22.37
2018-07-12T11:12:16.638Z,22.37
2018-07-12T11:13:16.636Z,22.37
2018-07-12T11:14:16.426Z,22.37
2018-07-12T11:15:16.688Z,22.36
2018-07-12T11:16:16.496Z,22.36
2018-07-12T11:17:16.418Z,22.37
2018-07-12T11:18:17.097Z,22.36
2018-07-12T11:19:16.423Z,22.37
2018-07-12T11:20:16.688Z,22.36
2018-07-12T11:21:16.561Z,22.36
2018-07-12T11:22:16.725Z,22.36
2018-07-12T11:23:16.452Z,22.36
2018-07-12T11:24:16.355Z,22.36
2018-07-12T11:25:16.612Z,22.36
2018-07-12T11:26:16.501Z,22.36
2018-07-12T11:27:16.435Z,22.36
2018-07-12T11:28:16.970Z,22.36
2018-07-12T11:29:16.456Z,22.35
2018-07-12T11:30:16.469Z,22.36
2018-07-12T11:31:16.341Z,22.36
2018-07-12T11:32:16.722Z,22.33
2018-07-12T11:33:16.542Z,22.34
2018-07-12T11:34:16.815Z,22.32
2018-07-12T11:35:16.391Z,22.34
2018-07-12T11:36:16.611Z,22.37
2018-07-12T11:37:16.503Z,22.35
2018-07-12T11:38:16.685Z,22.35
2018-07-12T11:39:16.556Z,22.37
2018-07-12T11:40:16.843Z,22.38
2018-07-12T11:41:16.518Z,22.37
2018-07-12T11:42:16.477Z,22.34
2018-07-12T11:43:16.615Z,22.38
2018-07-12T11:44:16.544Z,22.38
2018-07-12T11:45:16.558Z,22.39
2018-07-12T11:46:16.354Z,22.4
2018-07-12T11:47:16.442Z,22.39
2018-07-12T11:48:16.424Z,22.4
2018-07-12T11:49:16.417Z,22.4
2018-07-12T11:50:16.542Z,22.39
2018-07-12T11:51:16.398Z,22.4
2018-07-12T11:52:16.391Z,22.39
2018-07-12T11:53:16.430Z,22.4
2018-07-12T11:54:16.578Z,22.4
2018-07-12T11:55:16.412Z,22.39
2018-07-12T11:56:16.504Z,22.4
2018-07-12T11:57:16.339Z,22.41
2018-07-12T11:58:16.570Z,22.4
2018-07-12T11:59:16.378Z,22.42
2018-07-12T12:00:16.514Z,22.41
2018-07-12T12:01:16.478Z,22.4
2018-07-12T12:02:16.438Z,22.41
2018-07-12T12:03:16.433Z,22.4
2018-07-12T12:04:16.975Z,22.41
2018-07-12T12:05:16.461Z,22.41
2018-07-12T12:06:16.330Z,22.41
2018-07-12T12:07:16.336Z,22.41
2018-07-12T12:08:16.684Z,22.41
2018-07-12T12:09:16.601Z,22.34
2018-07-12T12:10:16.652Z,22.37
2018-07-12T12:11:16.589Z,22.41
2018-07-12T12:12:16.530Z,22.41
2018-07-12T12:13:16.505Z,22.39
2018-07-12T12:14:16.647Z,22.4
2018-07-12T12:15:16.335Z,22.4
2018-07-12T12:16:16.472Z,22.4
2018-07-12T12:17:16.373Z,22.41
2018-07-12T12:18:16.431Z,22.4
2018-07-12T12:19:16.443Z,22.4
2018-07-12T12:20:16.415Z,22.42
2018-07-12T12:21:16.492Z,22.42
2018-07-12T12:22:16.687Z,22.43
2018-07-12T12:23:16.503Z,22.42
2018-07-12T12:24:16.368Z,22.42
2018-07-12T12:25:16.696Z,22.42
2018-07-12T12:26:16.316Z,22.42
2018-07-12T12:27:16.334Z,22.43
2018-07-12T12:28:16.848Z,22.42
2018-07-12T12:29:16.434Z,22.42
2018-07-12T12:30:16.368Z,22.42
2018-07-12T12:31:16.403Z,22.43
2018-07-12T12:32:16.500Z,22.43
2018-07-12T12:33:16.265Z,22.42
2018-07-12T12:34:16.507Z,22.41
2018-07-12T12:35:16.607Z,22.42
2018-07-12T12:36:16.696Z,22.42
2018-07-12T12:37:16.698Z,22.42
2018-07-12T12:38:16.385Z,22.41
2018-07-12T12:39:16.683Z,22.42
2018-07-12T12:40:16.619Z,22.42
2018-07-12T12:41:16.467Z,22.41
2018-07-12T12:42:16.371Z,22.42
2018-07-12T12:43:16.549Z,22.41
2018-07-12T12:44:16.450Z,22.42
2018-07-12T12:45:16.443Z,22.4
2018-07-12T12:46:16.362Z,22.41
2018-07-12T12:47:16.514Z,22.42
2018-07-12T12:48:16.628Z,22.41
2018-07-12T12:49:16.424Z,22.41
2018-07-12T12:50:16.359Z,22.41
2018-07-12T12:51:16.366Z,22.41
2018-07-12T12:52:16.299Z,22.41
2018-07-12T12:53:16.399Z,22.41
2018-07-12T12:54:16.596Z,22.4